• Join FlightAware (Why Join?)
  • Login
  • US Flag 
07:24AM EST


 

Airport Tracker/Info


-or-


 

Live Flight TrackerFlight Track Log ✈ AVN11 ✈ 2014年 06月 30日 ✈ YSSY / SYD - NVVV / VLI

Flight Track Log - Related Links

Times and Time Zones

All times are in EDT time to prevent confusion due to time zone crossing. See the AVN11 flight status page for this flight to view local times or setup timezone preferences in your user account.

Time Position Orientation Groundspeed Altitude Reporting Facility
EDT Latitude Longitude Course Direction KTS MPH feet Rate Location/Type
09:16PM -33.9389 151.1861 357° North 178 205 900  Level FlightAware ADS-B
09:16PM -33.9305 151.1878 19° North 185 213 1,400 2,571 Climbing FlightAware ADS-B
09:16PM -33.9280 151.1893 25° Northeast 187 215 1,500 2,000 Climbing FlightAware ADS-B
09:16PM -33.9256 151.1912 38° Northeast 190 219 1,700 3,000 Climbing FlightAware ADS-B (YRAY)
09:16PM -33.9233 151.1937 52° Northeast 191 220 2,100 2,000 Climbing FlightAware ADS-B
09:16PM -33.9185 151.2033 64° Northeast 193 222 2,100 1,600 Level FlightAware ADS-B
09:16PM -33.9177 151.2147 76° East 196 226 2,500 2,118 Climbing FlightAware ADS-B
09:16PM -33.9189 151.2212 96° East 193 222 2,700 1,636 Climbing FlightAware ADS-B (YFHO)
09:17PM -33.9201 151.2253 111° Southeast 197 227 2,800 1,263 Climbing FlightAware ADS-B
09:17PM -33.9250 151.2396 113° Southeast 219 252 3,100 1,429 Climbing FlightAware ADS-B (YFHO)
09:17PM -33.9283 151.2493 112° Southeast 227 261 3,300 2,348 Climbing FlightAware ADS-B (YRAY)
09:17PM -33.9337 151.2650 107° East 239 275 4,000 2,357 Climbing FlightAware ADS-B
09:17PM -33.9359 151.2750 97° East 250 288 4,400 1,500 Climbing FlightAware ADS-B
09:18PM -33.9373 151.3031 88° East 274 315 4,600 750 Climbing FlightAware ADS-B
09:18PM -33.9361 151.3344 89° East 307 353 4,800 667 Climbing FlightAware ADS-B (YRAY)
09:18PM -33.9367 151.3193 88° East 318 366 4,900 207 Climbing FlightAware ADS-B (YFHO)
09:19PM -33.9338 151.4120 88° East 349 402 5,000 794 Climbing FlightAware ADS-B
09:19PM -33.9315 151.4785 87° East 345 397 5,800 2,667 Climbing FlightAware ADS-B
09:20PM -33.9294 151.5282 87° East 350 403 7,000 2,651 Climbing FlightAware ADS-B
09:20PM -33.9280 151.5623 87° East 360 414 7,700 3,000 Climbing FlightAware ADS-B (YFHO)
09:20PM -33.9269 151.5869 87° East 368 423 9,100 2,780 Climbing FlightAware ADS-B (YFHO)
09:21PM -33.9246 151.6442 87° East 369 425 9,600 3,333 Climbing FlightAware ADS-B (YFHO)
09:21PM -33.9223 151.6988 87° East 355 409 11,600 3,800 Climbing FlightAware ADS-B (YFHO)
09:22PM -33.9197 151.7632 87° East 347 399 13,400 3,238 Climbing FlightAware ADS-B (YFHO)
09:22PM -33.9167 151.8276 83° East 350 403 15,000 2,791 Climbing FlightAware ADS-B (YFHO)
09:22PM -33.9127 151.8457 70° East 351 404 15,400 2,444 Climbing FlightAware ADS-B (YFHO)
09:23PM -33.8984 151.8738 53° Northeast 354 407 16,100 1,404 Climbing FlightAware ADS-B (YFHO)
09:23PM -33.8644 151.9207 49° Northeast 384 442 16,500 1,200 Climbing FlightAware ADS-B (YFHO)
09:24PM -33.8174 151.9877 50° Northeast 408 470 17,500 1,971 Climbing FlightAware ADS-B (YFHO)
09:24PM -33.7790 152.0409 49° Northeast 410 472 18,800 2,571 Climbing FlightAware ADS-B (YFHO)
09:25PM -33.7391 152.0955 49° Northeast 408 470 20,200 2,418 Climbing FlightAware ADS-B
09:25PM -33.7104 152.1346 49° Northeast 409 471 21,500 1,944 Climbing FlightAware ADS-B (YFHO)
09:26PM -33.6489 152.2191 49° Northeast 416 479 22,500 1,970 Climbing FlightAware ADS-B (YFHO)
09:26PM -33.5971 152.2902 48° Northeast 424 488 23,700 1,672 Climbing FlightAware ADS-B (YPLB)
09:27PM -33.5696 152.3278 49° Northeast 429 494 24,200 1,279 Climbing FlightAware ADS-B (YFHO)
09:27PM -33.5185 152.3975 48° Northeast 439 505 25,000 2,174 Climbing FlightAware ADS-B (YPLB)
09:28PM -33.4641 152.4714 48° Northeast 430 495 26,700 2,400 Climbing FlightAware ADS-B (YPLB)
09:28PM -33.4700 152.4632 48° Northeast 435 501 26,800 1,105 Climbing Aus ATC (RADAR)
09:29PM -33.4278 152.5209 49° Northeast 431 496 27,400 706 Climbing FlightAware ADS-B (YFHO)
09:29PM -33.4059 152.5507 49° Northeast 437 503 27,600 468 Climbing FlightAware ADS-B (YFHO)
09:30PM -33.3278 152.6566 49° Northeast 469 540 28,000 846 Climbing FlightAware ADS-B
09:31PM -33.2527 152.7574 48° Northeast 478 550 28,700 1,024 Climbing FlightAware ADS-B (YPLB)
09:31PM -33.2623 152.7449 49° Northeast 475 547 28,700 1,200 Level Aus ATC (RADAR)
09:31PM -33.2230 152.7974 48° Northeast 480 552 29,100 1,404 Climbing FlightAware ADS-B (YPLB)
09:32PM -33.1770 152.8596 48° Northeast 481 554 29,800 1,114 Climbing FlightAware ADS-B (YPLB)
09:32PM -33.1367 152.9141 49° Northeast 482 555 30,400 1,050 Climbing FlightAware ADS-B
09:33PM -33.0579 153.0198 48° Northeast 486 559 31,200 1,200 Climbing FlightAware ADS-B (YPLB)
09:33PM -33.0445 153.0379 48° Northeast 487 560 31,400 840 Climbing FlightAware ADS-B (YPLB)
09:34PM -32.9833 153.1198 48° Northeast 493 567 31,900 612 Climbing FlightAware ADS-B (YPLB)
09:34PM -32.9884 153.1133 48° Northeast 490 564 31,900 581 Level Aus ATC (RADAR)
09:34PM -32.9524 153.1611 48° Northeast 496 571 32,200 1,220 Climbing FlightAware ADS-B
09:35PM -32.8808 153.2562 48° Northeast 492 566 33,100 1,143 Climbing FlightAware ADS-B (YPLB)
09:35PM -32.8891 153.2460 48° Northeast 496 571 33,000 1,024 Descending Aus ATC (RADAR)
09:35PM -32.8182 153.3395 48° Northeast 490 564 33,800 1,200 Climbing FlightAware ADS-B (YPLB)
09:36PM -32.7731 153.3995 48° Northeast 491 565 34,300 845 Climbing FlightAware ADS-B (YPLB)
09:37PM -32.7104 153.4826 48° Northeast 492 566 34,800 525 Climbing FlightAware ADS-B (YPLB)
09:37PM -32.6686 153.5378 48° Northeast 493 567 35,000 169 Climbing FlightAware ADS-B
09:38PM -32.6031 153.6242 48° Northeast 492 566 35,000  Level FlightAware ADS-B (YPLB)
09:39PM -32.5269 153.7245 48° Northeast 491 565 35,000  Level FlightAware ADS-B (YPLB)
09:40PM -32.4814 153.7844 48° Northeast 490 564 35,000 118 Level FlightAware ADS-B (YPLB)
09:40PM -32.4644 153.8070 48° Northeast 490 564 35,100  Climbing Aus ATC (RADAR)
09:40PM -32.4051 153.8843 47° Northeast 489 563 35,000  Descending FlightAware ADS-B (YPLB)
09:40PM -32.4115 153.8766 48° Northeast 489 563 35,100  Climbing Aus ATC (RADAR)
09:41PM -32.3452 153.9625 48° Northeast 490 564 35,000 -95 Descending FlightAware ADS-B (YPLB)
09:41PM -32.3012 154.0200 47° Northeast 489 563 35,000 97 Level FlightAware ADS-B (YPLB)
09:42PM -32.2706 154.0603 47° Northeast 474 545 35,100  Climbing Aus ATC (RADAR)
09:42PM -32.2380 154.1022 47° Northeast 490 564 35,000 -125 Descending FlightAware ADS-B (YPLB)
09:43PM -32.1815 154.1758 47° Northeast 491 565 35,000 85 Level FlightAware ADS-B (YPLB)
09:43PM -32.1453 154.2232 47° Northeast 490 564 35,100 118 Climbing Aus ATC (RADAR)
09:43PM -32.1181 154.2581 47° Northeast 476 548 35,100 -333 Level Aus ATC (RADAR)
09:43PM -32.1011 154.2799 47° Northeast 492 566 35,000 -200 Descending FlightAware ADS-B (YPLB)
09:44PM -32.0557 154.3385 47° Northeast 492 566 35,000  Level FlightAware ADS-B (YPLB)
09:45PM -31.9978 154.4132 47° Northeast 492 566 35,000  Level FlightAware ADS-B (YPLB)
09:45PM -31.9473 154.4782 47° Northeast 492 566 35,000  Level FlightAware ADS-B (YPLB)
09:46PM -31.8953 154.5453 47° Northeast 492 566 35,000 91 Level FlightAware ADS-B (YPLB)
09:46PM -31.8615 154.5887 47° Northeast 491 565 35,100  Climbing Aus ATC (RADAR)
09:46PM -31.8404 154.6157 47° Northeast 492 566 35,000 -176 Descending FlightAware ADS-B (YPLB)
09:47PM -31.7929 154.6765 47° Northeast 491 565 35,000 98 Level FlightAware ADS-B (YPLB)
09:47PM -31.7619 154.7163 47° Northeast 490 564 35,100 80 Climbing Aus ATC (RADAR)
09:48PM -31.6927 154.8048 47° Northeast 492 566 35,100 -125 Level Aus ATC (RADAR)
09:48PM -31.6717 154.8314 47° Northeast 491 565 35,000 -176 Descending FlightAware ADS-B (YPLB)
09:49PM -31.6246 154.8918 47° Northeast 491 565 35,000 78 Level FlightAware ADS-B (YPLB)
09:49PM -31.5700 154.9611 47° Northeast 490 564 35,100 79 Climbing Aus ATC (RADAR)
09:50PM -31.5240 155.0196 47° Northeast 490 564 35,100  Level Aus ATC (RADAR)
09:50PM -31.4701 155.0874 47° Northeast 489 563 35,100  Level Aus ATC (RADAR)
09:52PM -31.3463 155.2444 47° Northeast 494 568 35,100  Level Aus ATC (RADAR)
09:52PM -31.3072 155.2935 47° Northeast 496 571 35,100  Level Aus ATC (RADAR)
09:53PM -31.2492 155.3671 47° Northeast 478 550 35,100  Level Aus ATC (RADAR)
09:54PM -31.1622 155.4761 47° Northeast 482 555 35,100  Level Aus ATC (RADAR)
09:54PM -31.1038 155.5492 47° Northeast 496 571 35,100  Level Aus ATC (RADAR)
09:55PM -31.0259 155.6463 47° Northeast 492 566 35,100  Level Aus ATC (RADAR)
09:55PM -31.0029 155.6751 47° Northeast 491 565 35,100  Level Aus ATC (RADAR)
09:57PM -30.8894 155.8165 47° Northeast 479 551 35,100  Level Aus ATC (RADAR)
09:57PM -30.8666 155.8449 47° Northeast 479 551 35,100  Level Aus ATC (RADAR)
09:58PM -30.8055 155.9209 47° Northeast 482 555 35,100  Level Aus ATC (RADAR)
09:58PM -30.7386 156.0103 49° Northeast 488 562 35,100  Level Aus ATC (RADAR)
09:59PM -30.6792 156.0900 49° Northeast 489 563 35,100  Level Aus ATC (RADAR)
10:00PM -30.6043 156.1890 49° Northeast 489 563 35,100  Level Aus ATC (RADAR)
10:00PM -30.5667 156.2384 49° Northeast 489 563 35,100  Level Aus ATC (RADAR)
10:01PM -30.4609 156.3776 49° Northeast 492 566 35,100 -126 Level Aus ATC (RADAR)
10:02PM -30.4226 156.4273 48° Northeast 494 568 34,900 -185 Descending Aus ATC (RADAR)
10:02PM -30.3621 156.5062 48° Northeast 492 566 34,900  Level Aus ATC (RADAR)
10:03PM -30.2947 156.5943 48° Northeast 488 562 34,900  Level Aus ATC (RADAR)
10:04PM -30.2427 156.6626 49° Northeast 485 558 34,900  Level Aus ATC (RADAR)
10:05PM -30.1757 156.7499 48° Northeast 484 557 34,900  Level Aus ATC (RADAR)
10:05PM -30.1308 156.8084 48° Northeast 484 557 34,900  Level Aus ATC (RADAR)
10:06PM -30.0356 156.9319 48° Northeast 475 547 34,900  Level Aus ATC (RADAR)
10:07PM -29.9924 156.9878 48° Northeast 471 542 34,900  Level Aus ATC (RADAR)
10:07PM -29.9637 157.0250 48° Northeast 469 540 34,900  Level Aus ATC (RADAR)
10:08PM -29.9049 157.1001 48° Northeast 469 540 34,900  Level Aus ATC (RADAR)
10:08PM -29.8461 157.1752 48° Northeast 472 543 34,900  Level Aus ATC (RADAR)
10:09PM -29.7965 157.2397 48° Northeast 464 534 34,900  Level Aus ATC (RADAR)
10:10PM -29.7252 157.3313 48° Northeast 462 532 34,900  Level Aus ATC (RADAR)
10:10PM -29.6894 157.3773 48° Northeast 461 531 34,900  Level Aus ATC (RADAR)
10:11PM -29.5964 157.4957 48° Northeast 459 528 34,900  Level Aus ATC (RADAR)
10:12PM -29.5531 157.5508 48° Northeast 460 529 34,900  Level Aus ATC (RADAR)
10:12PM -29.5168 157.5967 48° Northeast 460 529 34,900  Level Aus ATC (RADAR)
10:13PM -29.4590 157.6696 48° Northeast 462 532 34,900  Level Aus ATC (RADAR)
10:13PM -29.4091 157.7335 48° Northeast 461 531 34,900  Level Aus ATC (RADAR)
10:14PM -29.3590 157.7975 48° Northeast 460 529 34,900  Level Aus ATC (RADAR)
10:15PM -29.2880 157.8885 48° Northeast 459 528 34,900  Level Aus ATC (RADAR)
10:15PM -29.2660 157.9163 48° Northeast 461 531 34,900  Level Aus ATC (RADAR)
10:16PM -29.2066 157.9904 47° Northeast 465 535 34,900  Level Aus ATC (RADAR)
10:17PM -29.1156 158.1023 47° Northeast 474 545 34,900  Level Aus ATC (RADAR)
10:18PM -29.0395 158.1989 48° Northeast 494 568 34,900  Level Aus ATC (RADAR)
10:20PM -28.7458 158.5654 47° Northeast 35,000 35 Climbing Aus ATC (Calculated)
10:22PM -28.6481 158.6867 47° Northeast  Level FlightAware Approximate
10:22PM -28.5618 158.7935 47° Northeast 35,000  Level Aus ATC (Calculated)
10:24PM -28.4411 158.9423 47° Northeast  Level FlightAware Approximate
10:25PM -28.3559 159.0472 47° Northeast  Level FlightAware Approximate
10:26PM -28.2705 159.1519 47° Northeast  Level FlightAware Approximate
10:26PM -28.1764 159.2667 226° Southwest 35,000  Level Aus ATC (Calculated)
10:27PM -28.1851 159.2564 47° Northeast  Level FlightAware Approximate
10:28PM -28.1706 159.2740 47° Northeast  Level FlightAware Approximate
10:29PM -28.0850 159.3783 47° Northeast  Level FlightAware Approximate
10:29PM -27.9303 159.5659 47° Northeast 35,000  Level Aus ATC (Calculated)
10:31PM -27.7895 159.7362 47° Northeast  Level FlightAware Approximate
10:31PM -27.7029 159.8406 227° Southwest 35,000  Level Aus ATC (Calculated)
10:32PM -27.7041 159.8392 47° Northeast  Level FlightAware Approximate
10:33PM -27.5946 159.9708 47° Northeast  Level FlightAware Approximate
10:34PM -27.5090 160.0735 47° Northeast  Level FlightAware Approximate
10:34PM -27.4086 160.1935 227° Southwest 35,000  Level Aus ATC (Calculated)
10:35PM -27.4233 160.1759 47° Northeast  Level FlightAware Approximate
10:35PM -27.3335 160.2830 47° Northeast 35,000  Level Aus ATC (Calculated)
10:37PM -27.2005 160.4412 47° Northeast  Level FlightAware Approximate
10:37PM -27.1151 160.5424 47° Northeast 35,000  Level Aus ATC (Calculated)
10:39PM -27.0062 160.6712 47° Northeast  Level FlightAware Approximate
10:39PM -26.9168 160.7766 226° Southwest 35,000  Level Aus ATC (Calculated)
10:40PM -26.9201 160.7728 46° Northeast  Level FlightAware Approximate
10:40PM -26.8568 160.8472 46° Northeast 35,000  Level Aus ATC (Calculated)
10:41PM -26.7404 160.9838 46° Northeast 35,000  Level Aus ATC (Calculated)
10:42PM -26.6958 161.0361 46° Northeast  Level FlightAware Approximate
10:43PM -26.6167 161.1286 46° Northeast  Level FlightAware Approximate
10:43PM -26.5766 161.1753 46° Northeast 35,000  Level Aus ATC (Calculated)
10:45PM -26.4527 161.3197 46° Northeast  Level FlightAware Approximate
10:45PM -26.4279 161.3485 46° Northeast 35,000  Level Aus ATC (Calculated)
10:47PM -26.2561 161.5477 46° Northeast  Level FlightAware Approximate
10:47PM -26.2480 161.5571 46° Northeast 35,000  Level Aus ATC (Calculated)
10:48PM -26.1694 161.6479 46° Northeast  Level FlightAware Approximate
10:49PM -26.0744 161.7574 46° Northeast  Level FlightAware Approximate
10:50PM -25.9876 161.8573 46° Northeast  Level FlightAware Approximate
10:51PM -25.9006 161.9570 46° Northeast  Level FlightAware Approximate
10:51PM -25.8532 162.0113 46° Northeast 35,000  Level Aus ATC (Calculated)
10:51PM -25.7988 162.0735 46° Northeast 35,000  Level Aus ATC (Calculated)
10:53PM -25.6769 162.2127 46° Northeast  Level FlightAware Approximate
10:54PM -25.5897 162.3119 46° Northeast  Level FlightAware Approximate
10:55PM -25.5025 162.4110 46° Northeast  Level FlightAware Approximate
10:56PM -25.4152 162.5099 46° Northeast  Level FlightAware Approximate
10:57PM -25.3278 162.6087 46° Northeast  Level FlightAware Approximate
10:57PM -25.2877 162.6540 46° Northeast 35,000  Level Aus ATC (Calculated)
10:58PM -25.2002 162.7526 46° Northeast  Level FlightAware Approximate
10:59PM -25.1126 162.8511 46° Northeast  Level FlightAware Approximate
11:00PM -25.0250 162.9494 45° Northeast  Level FlightAware Approximate
11:01PM -24.9373 163.0475 45° Northeast  Level FlightAware Approximate
11:02PM -24.8495 163.1454 45° Northeast  Level FlightAware Approximate
11:03PM -24.7616 163.2433 45° Northeast  Level FlightAware Approximate
11:04PM -24.6737 163.3409 45° Northeast  Level FlightAware Approximate
11:05PM -24.5857 163.4385 45° Northeast  Level FlightAware Approximate
11:06PM -24.4976 163.5359 45° Northeast  Level FlightAware Approximate
11:07PM -24.4095 163.6331 45° Northeast  Level FlightAware Approximate
11:08PM -24.3213 163.7302 45° Northeast  Level FlightAware Approximate
11:09PM -24.2330 163.8272 45° Northeast  Level FlightAware Approximate
11:10PM -24.1447 163.9241 45° Northeast  Level FlightAware Approximate
11:11PM -24.0564 164.0208 45° Northeast  Level FlightAware Approximate
11:12PM -23.9679 164.1174 45° Northeast  Level FlightAware Approximate
11:13PM -23.8794 164.2138 45° Northeast  Level FlightAware Approximate
11:14PM -23.7909 164.3102 45° Northeast  Level FlightAware Approximate
11:15PM -23.7022 164.4064 45° Northeast  Level FlightAware Approximate
11:16PM -23.6136 164.5024 45° Northeast  Level FlightAware Approximate
11:17PM -23.5248 164.5983 45° Northeast  Level FlightAware Approximate
11:18PM -23.4360 164.6941 45° Northeast  Level FlightAware Approximate
11:19PM -23.3472 164.7898 45° Northeast  Level FlightAware Approximate
11:20PM -23.2582 164.8853 45° Northeast  Level FlightAware Approximate
11:21PM -23.1692 164.9807 45° Northeast  Level FlightAware Approximate
11:22PM -23.0802 165.0760 45° Northeast  Level FlightAware Approximate
11:23PM -22.9911 165.1711 45° Northeast  Level FlightAware Approximate
11:24PM -22.9019 165.2661 44° Northeast  Level FlightAware Approximate
11:25PM -22.8127 165.3610 44° Northeast  Level FlightAware Approximate
11:26PM -22.7234 165.4558 44° Northeast  Level FlightAware Approximate
11:27PM -22.6341 165.5504 44° Northeast  Level FlightAware Approximate
11:28PM -22.5447 165.6449 44° Northeast  Level FlightAware Approximate
11:29PM -22.4553 165.7393 44° Northeast  Level FlightAware Approximate
11:30PM -22.3658 165.8336 44° Northeast  Level FlightAware Approximate
11:31PM -22.2763 165.9278 44° Northeast  Level FlightAware Approximate
11:32PM -22.1866 166.0218 44° Northeast  Level FlightAware Approximate
11:33PM -22.0970 166.1157 44° Northeast  Level FlightAware Approximate
11:34PM -22.0073 166.2095 44° Northeast  Level FlightAware Approximate
11:35PM -21.8937 166.2652 24° Northeast  Level FlightAware Approximate
11:36PM -21.7796 166.3199 24° Northeast  Level FlightAware Approximate
11:37PM -21.6655 166.3746 24° Northeast  Level FlightAware Approximate
11:38PM -21.5513 166.4291 24° Northeast  Level FlightAware Approximate
11:39PM -21.4371 166.4835 24° Northeast  Level FlightAware Approximate
11:40PM -21.3229 166.5379 24° Northeast  Level FlightAware Approximate
11:41PM -21.2087 166.5921 24° Northeast  Level FlightAware Approximate
11:42PM -21.0944 166.6463 24° Northeast  Level FlightAware Approximate
11:43PM -20.9802 166.7004 24° Northeast  Level FlightAware Approximate
11:44PM -20.8659 166.7545 24° Northeast  Level FlightAware Approximate
11:45PM -20.7516 166.8084 24° Northeast  Level FlightAware Approximate
11:46PM -20.6373 166.8622 24° Northeast  Level FlightAware Approximate
11:47PM -20.5229 166.9160 24° Northeast  Level FlightAware Approximate
11:48PM -20.4086 166.9697 24° Northeast  Level FlightAware Approximate
11:49PM -20.2942 167.0233 24° Northeast  Level FlightAware Approximate
11:50PM -20.1799 167.0769 24° Northeast  Level FlightAware Approximate
11:51PM -20.0655 167.1303 24° Northeast  Level FlightAware Approximate
11:52PM -19.9511 167.1837 24° Northeast  Level FlightAware Approximate
11:53PM -19.8366 167.2370 24° Northeast  Level FlightAware Approximate
11:54PM -19.7222 167.2902 24° Northeast  Level FlightAware Approximate
11:55PM -19.6077 167.3434 24° Northeast  Level FlightAware Approximate
11:56PM -19.4933 167.3965 24° Northeast  Level FlightAware Approximate
11:57PM -19.3790 167.4498 24° Northeast  Level FlightAware Approximate
11:58PM -19.2646 167.5031 24° Northeast  Level FlightAware Approximate
11:59PM -19.1502 167.5564 24° Northeast  Level FlightAware Approximate
12:00AM -19.0359 167.6095 24° Northeast  Level FlightAware Approximate
12:01AM -18.9214 167.6626 24° Northeast  Level FlightAware Approximate
12:02AM -18.8070 167.7156 24° Northeast  Level FlightAware Approximate
12:03AM -18.6926 167.7685 24° Northeast  Level FlightAware Approximate
12:04AM -18.5782 167.8214 24° Northeast  Level FlightAware Approximate
12:05AM -18.4638 167.8743 24° Northeast  Level FlightAware Approximate
12:06AM -18.3494 167.9273 24° Northeast  Level FlightAware Approximate
12:07AM -18.2350 167.9802 24° Northeast  Level FlightAware Approximate
12:08AM -18.1206 168.0330 24° Northeast  Level FlightAware Approximate
12:09AM -18.0062 168.0857 24° Northeast  Level FlightAware Approximate
12:10AM -17.8918 168.1384 24° Northeast  Level FlightAware Approximate
12:11AM -17.7774 168.1910 24° Northeast  Level FlightAware Approximate
12:12AM -17.6629 168.2436 24° Northeast  Level FlightAware Approximate
12:13AM -17.6621 168.2439 24° Northeast  Level FlightAware Approximate
12:14AM -17.6993 168.3198 117° Southeast  Level Estimated
12:15AM -17.6993 168.3198 24° Northeast  Level Estimated
12:16AM -17.6993 168.3198 North  Level Estimated
12:17AM -17.6993 168.3198 24° Northeast  Level Estimated
12:18AM -17.6993 168.3198 North  Level Estimated
12:19AM -17.6993 168.3198 24° Northeast  Level Estimated
12:20AM -17.6993 168.3198 North  Level Estimated
12:21AM -17.6993 168.3198 24° Northeast  Level Estimated
12:22AM -17.6993 168.3198 North  Level Estimated
12:23AM -17.6993 168.3198 24° Northeast  Level Estimated
12:24AM -17.6993 168.3198 North  Level Estimated
12:25AM -17.6993 168.3198 24° Northeast  Level Estimated
12:26AM -17.6993 168.3198 North  Level Estimated
12:27AM -17.6993 168.3198 24° Northeast  Level Estimated
12:28AM -17.6993 168.3198 North  Level Estimated
12:29AM -17.6993 168.3198 24° Northeast  Level Estimated
12:30AM -17.6993 168.3198 North  Level Estimated